Time;durP1;ratioP1;P1;durP2;ratioP2;P2;SDS_P1;SDS_P2;PMS_P1;PMS_P2;Temp;Humidity;BMP_temperature;BMP_pressure;BME280_temperature;BME280_humidity;BME280_pressure;Samples;Min_cycle;Max_cycle;Signal;HPM_P1;HPM_P2
2022/03/16 00:00:09;;;;;;;4.75;3.38;;;;;;;18.97;40.57;102578.28;5027195;28;20124;-47
2022/03/16 00:02:42;;;;;;;3.35;2.80;;;;;;;18.97;40.41;102572.91;5025788;28;20050;-41
2022/03/16 00:05:09;;;;;;;3.97;2.95;;;;;;;18.95;40.45;102573.03;5028227;28;20129;-41
2022/03/16 00:07:35;;;;;;;4.80;2.75;;;;;;;18.94;40.23;102571.34;5026356;28;20433;-41
2022/03/16 00:10:03;;;;;;;4.65;2.97;;;;;;;18.91;40.81;102574.25;5022332;28;20100;-41
2022/03/16 00:12:30;;;;;;;5.18;3.03;;;;;;;18.91;40.54;102574.25;5023698;28;20052;-41
2022/03/16 00:14:56;;;;;;;7.35;3.40;;;;;;;18.93;40.68;102574.13;5026362;28;20048;-41
2022/03/16 00:17:23;;;;;;;5.10;3.30;;;;;;;18.90;40.75;102580.59;5022774;28;20148;-41
2022/03/16 00:19:50;;;;;;;6.13;3.67;;;;;;;18.90;40.60;102587.81;5022389;28;20129;-41
2022/03/16 00:22:16;;;;;;;5.32;3.63;;;;;;;18.89;40.60;102578.00;5024689;28;20049;-41
2022/03/16 00:24:43;;;;;;;5.55;3.70;;;;;;;18.88;40.47;102585.22;5025996;28;20041;-40
2022/03/16 00:27:09;;;;;;;4.60;3.45;;;;;;;18.86;40.76;102589.88;5023654;28;20124;-41
2022/03/16 00:29:36;;;;;;;5.18;3.67;;;;;;;18.86;40.83;102583.66;5026722;28;20041;-40
2022/03/16 00:32:03;;;;;;;4.22;3.15;;;;;;;18.85;40.75;102587.28;5023942;28;20050;-40
2022/03/16 00:34:30;;;;;;;3.30;2.88;;;;;;;18.84;40.92;102590.94;5021011;28;20037;-41
2022/03/16 00:36:57;;;;;;;4.50;3.40;;;;;;;18.82;40.60;102588.38;5019744;28;20064;-41
2022/03/16 00:39:24;;;;;;;5.00;3.25;;;;;;;18.82;40.93;102583.03;5025331;28;20049;-42
2022/03/16 00:41:50;;;;;;;4.35;3.00;;;;;;;18.82;40.61;102583.03;5020247;28;20076;-41
2022/03/16 00:44:17;;;;;;;5.03;3.28;;;;;;;18.80;40.34;102587.63;5021910;28;20136;-41
2022/03/16 00:46:43;;;;;;;8.52;3.22;;;;;;;18.79;40.72;102577.03;5024507;28;20796;-41
2022/03/16 00:49:10;;;;;;;4.43;2.80;;;;;;;18.77;40.74;102582.50;5027811;28;20057;-41
2022/03/16 00:51:38;;;;;;;4.75;3.10;;;;;;;18.76;40.52;102585.31;5026209;28;20425;-42
2022/03/16 00:54:05;;;;;;;6.13;3.05;;;;;;;18.75;40.67;102579.06;5022942;28;20522;-41
2022/03/16 00:56:32;;;;;;;5.07;3.55;;;;;;;18.73;40.93;102581.88;5026325;28;20140;-42
2022/03/16 00:58:58;;;;;;;3.90;2.95;;;;;;;18.72;40.71;102576.63;5030993;28;20136;-41
2022/03/16 01:01:25;;;;;;;3.70;3.05;;;;;;;18.71;40.97;102578.44;5027538;28;20126;-41
2022/03/16 01:03:52;;;;;;;5.07;3.20;;;;;;;18.71;40.81;102574.91;5027055;28;20119;-41
2022/03/16 01:06:20;;;;;;;4.18;3.20;;;;;;;18.67;40.57;102574.25;5024625;28;20492;-40
2022/03/16 01:08:46;;;;;;;3.65;2.80;;;;;;;18.69;40.85;102569.63;5026996;28;20380;-40
2022/03/16 01:11:14;;;;;;;4.50;2.85;;;;;;;18.68;40.67;102570.59;5028218;28;20164;-42
2022/03/16 01:13:42;;;;;;;4.25;3.08;;;;;;;18.66;40.41;102563.63;5028435;28;20063;-41
2022/03/16 01:16:09;;;;;;;4.03;2.67;;;;;;;18.64;40.81;102554.81;5030276;28;20051;-41
2022/03/16 01:18:36;;;;;;;3.80;2.90;;;;;;;18.64;41.03;102563.72;5030283;28;20103;-41
2022/03/16 01:21:06;;;;;;;6.28;3.25;;;;;;;18.64;40.81;102557.50;5026325;28;20045;-41
2022/03/16 01:23:37;;;;;;;5.95;3.55;;;;;;;18.61;40.80;102552.34;5026622;28;20053;-41
2022/03/16 01:26:04;;;;;;;5.07;2.63;;;;;;;18.60;40.98;102561.41;5030714;28;20840;-40
2022/03/16 01:28:32;;;;;;;4.68;3.45;;;;;;;18.58;41.01;102553.47;5025693;28;20128;-41
2022/03/16 01:31:00;;;;;;;3.80;2.97;;;;;;;18.59;40.95;102551.63;5026724;28;20055;-41
2022/03/16 01:33:28;;;;;;;4.35;3.25;;;;;;;18.56;40.73;102558.06;5024169;28;20097;-41
2022/03/16 01:35:54;;;;;;;4.13;2.45;;;;;;;18.57;40.92;102561.63;5025160;28;20156;-40
2022/03/16 01:38:21;;;;;;;4.22;2.97;;;;;;;18.55;40.69;102564.44;5024948;28;20069;-41
2022/03/16 01:40:47;;;;;;;5.30;3.00;;;;;;;18.55;40.79;102560.91;5026003;28;20120;-41
2022/03/16 01:43:14;;;;;;;4.22;3.28;;;;;;;18.54;41.04;102562.72;5027246;28;20050;-41
2022/03/16 01:45:47;;;;;;;3.90;2.83;;;;;;;18.53;41.18;102562.81;5032565;28;20055;-41
2022/03/16 01:48:14;;;;;;;4.47;2.92;;;;;;;18.52;40.70;102567.34;5030530;28;20099;-41
2022/03/16 01:50:41;;;;;;;5.15;3.65;;;;;;;18.52;41.19;102566.47;5023642;28;20042;-41
2022/03/16 01:53:07;;;;;;;4.28;3.17;;;;;;;18.50;41.08;102566.63;5027989;28;20484;-41
2022/03/16 01:55:34;;;;;;;4.80;3.22;;;;;;;18.48;41.13;102568.53;5026821;28;20042;-41
2022/03/16 01:58:01;;;;;;;3.22;2.58;;;;;;;18.48;40.92;102557.81;5028250;28;20445;-41
2022/03/16 02:00:28;;;;;;;5.25;3.42;;;;;;;18.47;41.10;102558.78;5026230;28;20053;-41
2022/03/16 02:02:55;;;;;;;4.80;3.05;;;;;;;18.47;40.68;102559.63;5028612;28;20049;-41
2022/03/16 02:05:21;;;;;;;4.47;3.20;;;;;;;18.46;40.99;102557.06;5028108;28;20124;-41
2022/03/16 02:07:49;;;;;;;4.30;2.50;;;;;;;18.45;40.76;102560.69;5026293;28;20052;-41
2022/03/16 02:10:17;;;;;;;4.80;3.22;;;;;;;18.44;41.25;102559.00;5027052;28;20056;-42
2022/03/16 02:12:46;;;;;;;4.15;2.88;;;;;;;18.43;41.21;102559.97;5029145;28;20073;-41
2022/03/16 02:15:13;;;;;;;4.47;3.10;;;;;;;18.42;40.75;102561.81;5024444;28;20127;-40
2022/03/16 02:17:39;;;;;;;3.75;2.95;;;;;;;18.42;40.82;102561.81;5021941;28;20130;-40
2022/03/16 02:20:07;;;;;;;4.18;3.17;;;;;;;18.42;40.86;102563.63;5023264;28;20096;-40
2022/03/16 02:22:36;;;;;;;5.22;3.15;;;;;;;18.40;40.73;102554.81;5029945;28;20040;-40
2022/03/16 02:25:07;;;;;;;7.93;4.13;;;;;;;18.38;40.67;102546.06;5029168;28;20077;-40
2022/03/16 02:27:33;;;;;;;3.40;2.83;;;;;;;18.38;40.98;102543.38;5027828;28;20063;-40
2022/03/16 02:30:00;;;;;;;4.60;3.35;;;;;;;18.37;41.16;102542.50;5026684;28;20037;-40
2022/03/16 02:32:27;;;;;;;5.57;3.08;;;;;;;18.36;41.11;102545.28;5026667;28;20041;-40
2022/03/16 02:34:53;;;;;;;4.57;3.40;;;;;;;18.36;40.75;102531.88;5025686;28;20064;-40
2022/03/16 02:37:20;;;;;;;3.83;2.97;;;;;;;18.35;40.87;102524.78;5024049;28;20047;-39
2022/03/16 02:39:47;;;;;;;4.53;3.42;;;;;;;18.33;41.03;102521.34;5024883;28;20439;-41
2022/03/16 02:42:14;;;;;;;4.35;2.97;;;;;;;18.32;41.20;102511.59;5023272;28;20176;-41
2022/03/16 02:44:40;;;;;;;4.68;3.45;;;;;;;18.31;40.95;102515.25;5023664;28;20049;-41
2022/03/16 02:47:07;;;;;;;4.60;3.42;;;;;;;18.28;40.78;102515.47;5025799;28;20057;-41
2022/03/16 02:49:34;;;;;;;5.25;3.50;;;;;;;18.28;41.09;102515.47;5025470;28;20050;-41
2022/03/16 02:52:08;;;;;;;6.22;3.65;;;;;;;18.27;40.95;102516.47;5022956;28;20480;-41
2022/03/16 02:54:35;;;;;;;5.78;3.53;;;;;;;18.26;41.20;102518.28;5025411;28;20129;-42
2022/03/16 02:57:01;;;;;;;4.80;3.08;;;;;;;18.27;40.97;102527.19;5028948;28;20496;-41
2022/03/16 02:59:28;;;;;;;4.07;3.25;;;;;;;18.23;41.02;102519.38;5027335;28;20068;-41
2022/03/16 03:01:54;;;;;;;3.58;2.92;;;;;;;18.23;41.19;102516.69;5026440;28;20137;-41
2022/03/16 03:04:21;;;;;;;4.35;3.28;;;;;;;18.22;40.97;102506.91;5026969;28;20091;-41
2022/03/16 03:06:48;;;;;;;5.55;4.00;;;;;;;18.21;40.62;102507.00;5022755;28;20041;-41
2022/03/16 03:09:15;;;;;;;6.65;3.65;;;;;;;18.20;40.94;102508.00;5023465;28;20084;-41
2022/03/16 03:11:41;;;;;;;6.50;3.85;;;;;;;18.19;40.95;102507.16;5018969;28;20120;-41
2022/03/16 03:14:08;;;;;;;4.18;3.35;;;;;;;18.17;40.63;102511.78;5023012;28;20137;-41
2022/03/16 03:16:34;;;;;;;4.03;3.20;;;;;;;18.17;40.93;102508.22;5025564;28;20053;-40
2022/03/16 03:19:01;;;;;;;3.72;3.17;;;;;;;18.15;40.71;102513.72;5024517;28;20045;-40
2022/03/16 03:21:28;;;;;;;4.50;3.13;;;;;;;18.15;41.16;102508.34;5023285;28;20076;-41
2022/03/16 03:23:54;;;;;;;4.05;3.35;;;;;;;18.14;41.14;102513.84;5027670;28;20049;-41
2022/03/16 03:26:21;;;;;;;5.03;3.20;;;;;;;18.14;40.95;102520.06;5028432;28;20042;-40
2022/03/16 03:28:47;;;;;;;4.47;3.00;;;;;;;18.13;41.08;102515.66;5026641;28;20276;-40
2022/03/16 03:31:14;;;;;;;4.10;3.17;;;;;;;18.12;40.89;102516.63;5022110;28;20052;-40
2022/03/16 03:33:41;;;;;;;4.55;3.20;;;;;;;18.10;41.29;102513.19;5020874;28;20072;-40
2022/03/16 03:36:07;;;;;;;4.63;3.40;;;;;;;18.10;41.29;102515.88;5021669;28;20345;-41
2022/03/16 03:38:34;;;;;;;4.70;3.58;;;;;;;18.10;40.79;102506.97;5024316;28;20055;-40
2022/03/16 03:41:00;;;;;;;4.20;3.20;;;;;;;18.09;40.95;102507.94;5024535;28;21087;-40
2022/03/16 03:43:27;;;;;;;4.68;3.17;;;;;;;18.07;41.11;102505.38;5031924;28;20327;-41
2022/03/16 03:45:54;;;;;;;5.80;3.67;;;;;;;18.06;41.23;102516.22;5027472;28;20131;-41
2022/03/16 03:48:20;;;;;;;3.85;3.13;;;;;;;18.05;41.08;102512.69;5025082;28;20333;-41
2022/03/16 03:50:47;;;;;;;3.95;3.03;;;;;;;18.02;41.16;102507.53;5023163;28;20140;-40
2022/03/16 03:53:15;;;;;;;5.25;3.58;;;;;;;18.02;40.96;102504.88;5027099;28;20164;-40
2022/03/16 03:55:42;;;;;;;4.47;3.22;;;;;;;18.00;41.22;102502.28;5023282;28;20037;-41
2022/03/16 03:58:08;;;;;;;4.75;3.30;;;;;;;18.00;41.08;102496.06;5023227;28;20443;-41
2022/03/16 04:00:35;;;;;;;4.88;3.53;;;;;;;17.99;40.84;102499.72;5025078;28;20048;-40
2022/03/16 04:03:01;;;;;;;5.03;3.40;;;;;;;17.97;41.27;102499.00;5027132;28;20048;-41
2022/03/16 04:05:28;;;;;;;5.00;2.88;;;;;;;17.96;41.44;102497.25;5024725;28;20095;-41
2022/03/16 04:07:55;;;;;;;3.70;3.25;;;;;;;17.94;41.25;102496.53;5022778;28;20059;-41
2022/03/16 04:10:21;;;;;;;4.75;3.40;;;;;;;17.92;41.21;102496.63;5023836;28;20041;-41
2022/03/16 04:12:49;;;;;;;4.55;3.25;;;;;;;17.91;40.83;102497.59;5022519;28;20368;-40
2022/03/16 04:15:18;;;;;;;4.28;3.45;;;;;;;17.89;41.07;102494.19;5024841;28;20396;-40
2022/03/16 04:17:44;;;;;;;5.68;3.50;;;;;;;17.89;41.04;102487.94;5024971;28;20136;-41
2022/03/16 04:20:11;;;;;;;5.57;3.08;;;;;;;17.87;41.50;102496.09;5025186;28;20053;-40
2022/03/16 04:22:38;;;;;;;4.57;3.38;;;;;;;17.86;40.99;102494.41;5020125;28;20132;-41
2022/03/16 04:25:05;;;;;;;4.80;3.58;;;;;;;17.86;41.34;102496.22;5025087;28;20045;-41
2022/03/16 04:27:32;;;;;;;4.10;3.38;;;;;;;17.85;41.04;102486.44;5021553;28;20044;-41
2022/03/16 04:29:59;;;;;;;5.28;3.55;;;;;;;17.84;41.30;102495.47;5022445;28;20063;-41
2022/03/16 04:32:25;;;;;;;4.72;3.50;;;;;;;17.82;41.10;102490.22;5024713;28;20563;-41
2022/03/16 04:34:52;;;;;;;4.85;3.35;;;;;;;17.82;41.30;102492.91;5024745;28;20052;-41
2022/03/16 04:37:18;;;;;;;4.18;3.67;;;;;;;17.82;41.43;102494.75;5023725;28;20057;-41
2022/03/16 04:39:45;;;;;;;4.13;3.20;;;;;;;17.81;41.40;102501.06;5023201;28;20128;-41
2022/03/16 04:42:12;;;;;;;5.72;3.40;;;;;;;17.80;41.27;102510.91;5022209;28;20325;-40
2022/03/16 04:44:39;;;;;;;8.13;3.50;;;;;;;17.82;41.19;102508.16;5021557;28;20138;-40
2022/03/16 04:47:06;;;;;;;6.22;3.35;;;;;;;17.81;41.25;102514.47;5023933;28;20045;-40
2022/03/16 04:49:32;;;;;;;4.00;3.20;;;;;;;17.82;41.50;102508.16;5020261;28;20042;-40
2022/03/16 04:51:59;;;;;;;4.95;3.42;;;;;;;17.81;41.29;102511.78;5022424;28;20060;-40
2022/03/16 04:54:25;;;;;;;4.20;3.30;;;;;;;17.81;41.18;102503.72;5021599;28;20156;-40
2022/03/16 04:56:52;;;;;;;5.53;3.30;;;;;;;17.83;41.33;102504.50;5024247;28;20042;-40
2022/03/16 04:59:19;;;;;;;4.18;2.83;;;;;;;17.85;41.24;102500.75;5018917;28;20069;-41
2022/03/16 05:01:46;;;;;;;3.42;2.72;;;;;;;17.90;40.97;102487.84;5024750;28;20273;-41
2022/03/16 05:04:14;;;;;;;4.93;3.10;;;;;;;17.94;40.82;102491.16;5022084;28;20068;-40
2022/03/16 05:06:41;;;;;;;3.92;2.90;;;;;;;17.99;41.15;102488.97;5021883;28;20967;-41
2022/03/16 05:09:07;;;;;;;3.42;2.80;;;;;;;18.05;40.69;102488.53;5024444;28;20048;-41
2022/03/16 05:11:35;;;;;;;4.30;3.53;;;;;;;18.10;40.83;102488.19;5020708;28;20046;-41
2022/03/16 05:14:02;;;;;;;6.00;4.03;;;;;;;18.13;40.69;102480.78;5024134;28;20153;-41
2022/03/16 05:16:29;;;;;;;5.35;3.00;;;;;;;18.18;40.63;102481.28;5024571;28;20384;-41
2022/03/16 05:18:56;;;;;;;4.65;3.22;;;;;;;18.23;40.63;102486.31;5024218;28;20341;-41
2022/03/16 05:21:22;;;;;;;5.40;3.47;;;;;;;18.28;40.97;102488.63;5024409;28;20044;-41
2022/03/16 05:23:49;;;;;;;4.38;3.20;;;;;;;18.32;40.63;102493.66;5024076;28;20295;-41
2022/03/16 05:26:15;;;;;;;6.18;3.90;;;;;;;18.37;41.05;102487.94;5021861;28;20333;-41
2022/03/16 05:28:43;;;;;;;4.70;3.33;;;;;;;18.39;41.10;102502.13;5023228;28;20157;-41
2022/03/16 05:31:10;;;;;;;4.10;2.90;;;;;;;18.40;40.71;102493.94;5022349;28;20345;-41
2022/03/16 05:33:39;;;;;;;5.60;3.78;;;;;;;18.42;40.49;102497.38;5023890;28;20045;-41
2022/03/16 05:36:06;;;;;;;4.13;3.03;;;;;;;18.43;40.69;102499.09;5023590;28;20702;-41
2022/03/16 05:38:33;;;;;;;4.00;2.80;;;;;;;18.44;40.36;102498.09;5027063;28;20443;-41
2022/03/16 05:40:59;;;;;;;4.57;3.30;;;;;;;18.42;40.38;102504.56;5027355;28;20058;-41
2022/03/16 05:43:26;;;;;;;4.18;3.03;;;;;;;18.36;40.28;102508.56;5027951;28;20072;-41
2022/03/16 05:45:52;;;;;;;3.90;2.88;;;;;;;18.33;40.30;102510.63;5029555;28;20068;-40
2022/03/16 05:48:19;;;;;;;4.25;3.05;;;;;;;18.28;40.40;102504.75;5027794;28;20087;-41
2022/03/16 05:50:46;;;;;;;6.00;2.90;;;;;;;18.23;40.65;102505.94;5025356;28;20052;-40
2022/03/16 05:53:14;;;;;;;4.43;3.03;;;;;;;18.20;40.50;102508.84;5024429;28;20047;-41
2022/03/16 05:55:41;;;;;;;4.63;3.10;;;;;;;18.18;40.81;102510.81;5025996;28;20045;-40
2022/03/16 05:58:08;;;;;;;6.00;3.63;;;;;;;18.14;40.55;102509.31;5025903;28;20081;-41
2022/03/16 06:00:35;;;;;;;4.82;3.30;;;;;;;18.11;40.68;102509.53;5029390;28;20132;-40
2022/03/16 06:03:02;;;;;;;4.97;3.40;;;;;;;18.10;41.03;102509.66;5025490;28;20115;-40
2022/03/16 06:05:30;;;;;;;6.60;3.42;;;;;;;18.08;40.67;102509.75;5025853;28;20074;-40
2022/03/16 06:07:57;;;;;;;5.07;3.40;;;;;;;18.06;40.61;102509.03;5027689;28;20049;-40
2022/03/16 06:10:23;;;;;;;5.88;3.10;;;;;;;18.06;40.78;102505.50;5023026;28;20072;-42
2022/03/16 06:12:58;;;;;;;5.30;3.50;;;;;;;18.05;40.94;102515.38;5025940;28;20129;-41
2022/03/16 06:15:27;;;;;;;4.57;3.25;;;;;;;18.04;40.52;102500.22;5022048;28;20081;-41
2022/03/16 06:17:59;;;;;;;4.35;3.38;;;;;;;18.04;40.78;102508.28;5025258;28;20053;-41
2022/03/16 06:20:28;;;;;;;4.17;2.93;;;;;;;18.05;40.55;102509.13;5024273;28;20077;-41
2022/03/16 06:22:54;;;;;;;4.78;3.45;;;;;;;18.04;40.68;102504.75;5027037;28;20498;-41
2022/03/16 06:25:24;;;;;;;4.63;3.42;;;;;;;18.04;40.40;102504.75;5025307;28;20053;-42
2022/03/16 06:27:52;;;;;;;6.03;2.85;;;;;;;18.04;40.65;102507.41;5020748;28;20137;-41
2022/03/16 06:30:18;;;;;;;3.33;2.63;;;;;;;18.04;40.25;102500.22;5025104;28;20140;-41
2022/03/16 06:32:46;;;;;;;5.97;2.90;;;;;;;18.04;40.62;102502.91;5021918;28;21743;-41
2022/03/16 06:35:12;;;;;;;5.43;3.15;;;;;;;18.05;40.51;102496.59;5023612;28;20126;-41
2022/03/16 06:37:39;;;;;;;4.75;3.28;;;;;;;18.07;40.63;102497.31;5023816;28;20073;-41
2022/03/16 06:40:06;;;;;;;5.32;3.17;;;;;;;18.07;40.37;102497.31;5026756;28;20388;-42
2022/03/16 06:42:33;;;;;;;3.78;2.97;;;;;;;18.08;40.32;102499.03;5027477;28;20072;-41
2022/03/16 06:44:59;;;;;;;4.13;2.92;;;;;;;18.08;40.49;102501.72;5028007;28;20081;-42
2022/03/16 06:47:26;;;;;;;4.60;2.92;;;;;;;18.09;40.40;102497.19;5026287;28;20136;-41
2022/03/16 06:49:52;;;;;;;4.22;3.05;;;;;;;18.09;40.22;102502.56;5023498;28;20136;-41
2022/03/16 06:52:19;;;;;;;5.22;3.55;;;;;;;18.09;40.08;102500.75;5023675;28;20120;-41
2022/03/16 06:54:45;;;;;;;4.10;3.00;;;;;;;18.08;40.51;102499.03;5028536;28;20336;-41
2022/03/16 06:57:12;;;;;;;4.30;3.17;;;;;;;18.09;40.34;102500.75;5023277;28;20050;-41
2022/03/16 06:59:59;;;;;;;5.07;3.25;;;;;;;18.12;40.08;102495.16;5029355;28;20041;-41
2022/03/16 07:02:25;;;;;;;4.32;3.17;;;;;;;18.15;40.02;102497.59;5026837;28;20088;-42
2022/03/16 07:04:53;;;;;;;4.38;3.05;;;;;;;18.17;40.18;102506.41;5029842;28;20033;-42
2022/03/16 07:07:19;;;;;;;5.30;3.40;;;;;;;18.17;40.18;102498.38;5027341;28;20041;-42
2022/03/16 07:09:46;;;;;;;4.18;3.03;;;;;;;18.17;39.79;102492.13;5026215;28;20079;-41
2022/03/16 07:12:12;;;;;;;5.05;3.03;;;;;;;18.19;39.61;102491.03;5023406;28;20037;-41
2022/03/16 07:14:39;;;;;;;7.53;2.70;;;;;;;18.20;39.94;102489.22;5024329;28;20121;-41
2022/03/16 07:17:05;;;;;;;5.50;2.88;;;;;;;18.21;39.84;102494.47;5023139;28;20045;-41
2022/03/16 07:19:32;;;;;;;7.25;3.00;;;;;;;18.23;39.96;102489.00;5023051;28;20584;-41
2022/03/16 07:22:00;;;;;;;5.45;3.13;;;;;;;18.24;39.65;102488.00;5022741;28;20132;-41
2022/03/16 07:24:27;;;;;;;4.82;2.80;;;;;;;18.24;39.64;102482.63;5025507;28;20316;-41
2022/03/16 07:26:55;;;;;;;5.97;3.25;;;;;;;18.25;39.72;102476.28;5023255;28;20063;-41
2022/03/16 07:29:22;;;;;;;4.93;2.53;;;;;;;18.24;39.72;102479.97;5022681;28;20455;-41
2022/03/16 07:31:49;;;;;;;5.00;2.85;;;;;;;18.25;39.57;102474.50;5021177;28;20332;-41
2022/03/16 07:34:16;;;;;;;4.65;2.50;;;;;;;18.25;39.72;102476.28;5022967;28;20041;-41
2022/03/16 07:36:43;;;;;;;4.65;2.78;;;;;;;18.27;39.59;102481.56;5022881;28;20124;-41
2022/03/16 07:39:11;;;;;;;3.97;2.45;;;;;;;18.26;39.64;102469.97;5027777;28;20064;-41
2022/03/16 07:41:38;;;;;;;4.05;2.83;;;;;;;18.28;39.42;102470.69;5021567;28;20061;-41
2022/03/16 07:44:05;;;;;;;3.63;2.55;;;;;;;18.28;39.39;102461.81;5020358;28;20046;-41
2022/03/16 07:46:32;;;;;;;3.97;2.67;;;;;;;18.28;39.49;102451.91;5020228;28;20052;-41
2022/03/16 07:48:58;;;;;;;4.63;2.90;;;;;;;18.30;39.47;102443.75;5017368;28;20060;-41
2022/03/16 07:51:25;;;;;;;5.70;2.78;;;;;;;18.30;39.43;102439.25;5017531;28;20052;-41
2022/03/16 07:53:52;;;;;;;5.22;3.28;;;;;;;18.31;39.43;102432.03;5020919;28;20179;-42
2022/03/16 07:56:18;;;;;;;5.45;2.65;;;;;;;18.32;39.51;102431.06;5018313;28;20128;-41
2022/03/16 07:58:45;;;;;;;4.82;2.50;;;;;;;18.34;39.31;102429.13;5021661;28;20049;-41
2022/03/16 08:01:11;;;;;;;6.65;3.13;;;;;;;18.37;39.59;102434.25;5021918;28;20298;-41
2022/03/16 08:03:38;;;;;;;3.53;2.50;;;;;;;18.39;39.22;102433.16;5021492;28;20041;-41
2022/03/16 08:06:05;;;;;;;3.55;2.28;;;;;;;18.41;39.41;102436.59;5017339;28;20045;-40
2022/03/16 08:08:32;;;;;;;7.18;2.83;;;;;;;18.43;39.38;102428.44;5020753;28;20048;-41
2022/03/16 08:11:01;;;;;;;5.88;3.30;;;;;;;18.45;39.23;102432.72;5021542;28;20041;-40
2022/03/16 08:13:28;;;;;;;4.70;3.10;;;;;;;18.47;39.01;102417.31;5016941;28;20120;-40
2022/03/16 08:15:54;;;;;;;5.75;2.90;;;;;;;18.50;39.16;102421.63;5022184;28;20061;-40
2022/03/16 08:18:21;;;;;;;5.25;2.80;;;;;;;18.53;38.68;102425.88;5018929;28;20045;-40
2022/03/16 08:20:47;;;;;;;6.05;2.85;;;;;;;18.55;38.64;102430.16;5018049;28;20076;-40
2022/03/16 08:23:14;;;;;;;5.78;2.95;;;;;;;18.56;38.48;102412.22;5020519;28;20233;-40
2022/03/16 08:25:52;;;;;;;4.30;2.90;;;;;;;18.58;39.02;102416.50;5020826;28;20429;-40
2022/03/16 08:28:18;;;;;;;4.15;2.42;;;;;;;18.60;38.91;102421.75;5018508;28;20042;-40
2022/03/16 08:30:45;;;;;;;2.95;2.25;;;;;;;18.63;38.58;102414.31;5022192;28;20048;-40
2022/03/16 08:33:12;;;;;;;3.85;2.50;;;;;;;18.65;38.65;102423.13;5017934;28;20040;-41
2022/03/16 08:35:39;;;;;;;4.03;2.63;;;;;;;18.67;38.67;102415.78;5020168;28;20111;-40
2022/03/16 08:38:05;;;;;;;4.85;2.20;;;;;;;18.71;38.38;102432.56;5020586;28;20499;-40
2022/03/16 08:40:32;;;;;;;3.97;2.33;;;;;;;18.72;38.29;102427.06;5023619;28;20124;-41
2022/03/16 08:42:58;;;;;;;3.25;2.42;;;;;;;18.75;38.10;102434.03;5014714;28;20085;-40
2022/03/16 08:45:25;;;;;;;3.75;2.40;;;;;;;18.77;37.94;102437.44;5017596;28;20152;-40
2022/03/16 08:47:52;;;;;;;4.00;2.45;;;;;;;18.79;38.11;102442.69;5022042;28;20042;-40
2022/03/16 08:50:18;;;;;;;8.02;2.67;;;;;;;18.80;38.05;102439.03;5021052;28;20314;-41
2022/03/16 08:52:45;;;;;;;6.10;2.88;;;;;;;18.82;37.77;102439.78;5020960;28;20782;-41
2022/03/16 08:55:14;;;;;;;3.33;2.47;;;;;;;18.82;38.05;102440.63;5022240;28;20042;-40
2022/03/16 08:57:44;;;;;;;4.07;2.88;;;;;;;18.84;37.78;102437.81;5020185;28;20117;-40
2022/03/16 09:00:15;;;;;;;4.78;2.25;;;;;;;18.86;37.48;102431.38;5016309;28;20141;-41
2022/03/16 09:02:42;;;;;;;3.97;2.63;;;;;;;18.87;37.71;102433.06;5019799;28;20675;-41
2022/03/16 09:05:10;;;;;;;4.18;3.03;;;;;;;18.90;37.97;102429.28;5014439;28;20125;-40
2022/03/16 09:07:38;;;;;;;4.20;2.58;;;;;;;18.94;37.86;102441.50;5019811;28;20045;-42
2022/03/16 09:10:06;;;;;;;5.05;2.58;;;;;;;18.96;37.77;102440.38;5028375;28;20124;-41
2022/03/16 09:12:33;;;;;;;4.10;2.70;;;;;;;18.99;38.01;102432.09;5020134;28;20427;-41
2022/03/16 09:14:59;;;;;;;4.20;3.08;;;;;;;19.02;37.95;102436.38;5025952;28;20041;-41
2022/03/16 09:17:26;;;;;;;4.55;2.88;;;;;;;19.06;37.77;102437.84;5023632;28;20046;-42
2022/03/16 09:19:53;;;;;;;5.00;2.28;;;;;;;19.09;37.77;102445.66;5026039;28;20053;-42
2022/03/16 09:22:20;;;;;;;6.18;2.35;;;;;;;19.14;37.76;102446.16;5033404;28;20336;-41
2022/03/16 09:24:48;;;;;;;5.10;2.47;;;;;;;19.18;38.02;102441.41;5025355;28;20073;-39
2022/03/16 09:27:16;;;;;;;3.15;2.13;;;;;;;19.22;37.65;102448.25;5019103;28;20081;-41
2022/03/16 09:29:46;;;;;;;4.95;2.28;;;;;;;19.28;37.52;102441.50;5024432;28;20150;-40
2022/03/16 09:32:13;;;;;;;3.63;1.92;;;;;;;19.31;37.94;102442.13;5022060;28;20141;-40
2022/03/16 09:34:42;;;;;;;5.32;2.38;;;;;;;19.37;37.79;102438.06;5021178;28;20049;-40
2022/03/16 09:37:10;;;;;;;2.83;2.15;;;;;;;19.41;38.14;102436.84;5021789;28;20132;-41
2022/03/16 09:39:37;;;;;;;5.22;3.17;;;;;;;19.47;37.66;102434.53;5020965;28;20139;-41
2022/03/16 09:42:05;;;;;;;5.13;2.00;;;;;;;19.53;38.25;102427.78;5021013;28;20047;-41
2022/03/16 09:44:32;;;;;;;4.13;2.40;;;;;;;19.60;38.43;102428.16;5022635;28;20368;-41
2022/03/16 09:47:01;;;;;;;4.13;2.50;;;;;;;19.66;38.25;102439.31;5021606;28;20049;-41
2022/03/16 09:49:28;;;;;;;4.88;2.75;;;;;;;19.70;38.24;102432.69;5022715;28;20050;-41
2022/03/16 09:51:56;;;;;;;4.80;2.55;;;;;;;19.78;38.17;102432.06;5024026;28;20077;-42
2022/03/16 09:54:23;;;;;;;3.70;2.40;;;;;;;19.84;38.02;102428.00;5024839;28;20050;-42
2022/03/16 09:56:49;;;;;;;3.35;2.13;;;;;;;19.90;38.07;102416.72;5023061;28;20041;-42
2022/03/16 09:59:16;;;;;;;4.30;2.40;;;;;;;19.97;37.82;102418.75;5023733;28;20052;-43
2022/03/16 10:01:43;;;;;;;4.20;2.60;;;;;;;20.03;38.24;102416.56;5020031;28;20044;-42
2022/03/16 10:04:11;;;;;;;2.88;2.58;;;;;;;20.08;37.79;102407.09;5023390;28;20060;-41
2022/03/16 10:06:39;;;;;;;4.10;2.70;;;;;;;20.14;38.05;102411.09;5023227;28;20154;-42
2022/03/16 10:15:21;;;;;;;4.47;2.42;;;;;;;20.33;37.88;102410.41;5022272;28;20077;-43
2022/03/16 10:18:04;;;;;;;3.53;2.50;;;;;;;20.37;37.88;102401.09;5018074;28;20097;-40
2022/03/16 10:20:35;;;;;;;3.53;2.65;;;;;;;20.42;37.92;102386.25;5022128;28;20332;-39
2022/03/16 10:23:02;;;;;;;3.58;2.40;;;;;;;20.45;37.12;102390.50;5016370;28;20045;-40
2022/03/16 10:25:32;;;;;;;4.45;2.78;;;;;;;20.50;37.93;102392.84;5018999;28;20134;-40
2022/03/16 10:28:12;;;;;;;4.00;2.63;;;;;;;20.54;37.66;102389.75;5023429;28;20125;-41
2022/03/16 10:30:47;;;;;;;5.80;3.60;;;;;;;20.59;37.82;102374.06;5021697;28;20045;-41
2022/03/16 10:33:16;;;;;;;7.40;2.55;;;;;;;20.62;37.24;102376.50;5020508;28;20065;-41
2022/03/16 10:36:04;;;;;;;3.70;2.63;;;;;;;20.66;37.17;102385.13;5028265;28;20700;-41
2022/03/16 10:38:37;;;;;;;3.28;2.55;;;;;;;20.70;37.19;102379.38;5026027;28;20087;-41
2022/03/16 10:46:34;;;;;;;4.68;3.17;;;;;;;20.73;37.14;102380.06;5024282;28;20041;-41
2022/03/16 10:46:55;;;;;;;4.20;2.88;;;;;;;20.80;37.54;102378.56;5022254;28;20053;-41
2022/03/16 10:49:26;;;;;;;5.88;2.92;;;;;;;20.82;37.38;102385.50;5023700;28;20095;-42
2022/03/16 10:52:05;;;;;;;4.95;3.30;;;;;;;20.85;37.07;102381.69;5022717;28;20121;-41
2022/03/16 10:54:36;;;;;;;4.18;2.88;;;;;;;20.87;36.83;102380.56;5019699;28;20038;-43
2022/03/16 10:57:05;;;;;;;5.30;2.28;;;;;;;20.90;37.31;102372.22;5019840;28;20049;-42
2022/03/16 10:59:34;;;;;;;2.97;2.25;;;;;;;20.93;37.01;102376.47;5020574;28;20416;-43
2022/03/16 11:02:06;;;;;;;4.47;2.95;;;;;;;20.94;36.86;102370.09;5020624;28;21034;-43
2022/03/16 11:04:35;;;;;;;2.92;2.60;;;;;;;20.94;36.98;102368.28;5021746;28;20160;-42
2022/03/16 11:07:03;;;;;;;3.95;2.38;;;;;;;20.95;37.26;102375.38;5021785;28;20088;-43
2022/03/16 11:09:31;;;;;;;3.60;2.58;;;;;;;20.97;37.19;102382.44;5020043;28;20050;-43
2022/03/16 11:14:50;;;;;;;3.22;2.28;;;;;;;20.98;37.39;102366.13;5022168;28;20052;-43
2022/03/16 11:17:19;;;;;;;5.05;2.55;;;;;;;20.99;37.40;102369.72;5019811;28;20549;-42
2022/03/16 11:19:51;;;;;;;3.40;2.22;;;;;;;20.99;36.71;102373.25;5025712;28;20116;-43
2022/03/16 11:22:25;;;;;;;5.38;3.00;;;;;;;20.99;36.71;102362.47;5021625;28;20133;-43
2022/03/16 11:25:15;;;;;;;5.78;2.60;;;;;;;20.99;36.87;102372.41;5021858;28;20041;-43
2022/03/16 11:27:50;;;;;;;3.45;2.15;;;;;;;20.99;36.97;102361.63;5022138;28;20053;-43
2022/03/16 11:30:36;;;;;;;3.63;2.30;;;;;;;20.98;36.70;102371.53;5027059;28;20490;-43
2022/03/16 11:33:10;;;;;;;3.50;2.47;;;;;;;20.98;37.00;102358.03;5021561;28;20050;-44
2022/03/16 11:35:44;;;;;;;4.60;2.60;;;;;;;21.00;37.34;102360.63;5024034;28;20049;-43
2022/03/16 11:38:13;;;;;;;4.93;3.00;;;;;;;20.99;36.77;102357.09;5018954;28;20079;-42